Time;durP1;ratioP1;P1;durP2;ratioP2;P2;SDS_P1;SDS_P2;PMS_P1;PMS_P2;Temp;Humidity;BMP_temperature;BMP_pressure;BME280_temperature;BME280_humidity;BME280_pressure;Samples;Min_cycle;Max_cycle;Signal;HPM_P1;HPM_P2
2023/05/09 00:01:58;;;;;;;41.85;26.25;;;16.20;99.90;;;;;;4981133;28;20397;-88
2023/05/09 00:04:25;;;;;;;40.85;27.40;;;16.20;99.90;;;;;;4994390;28;20108;-87
2023/05/09 00:06:50;;;;;;;48.03;30.73;;;16.20;99.90;;;;;;4976863;28;20050;-86
2023/05/09 00:09:16;;;;;;;57.85;34.17;;;16.20;99.90;;;;;;4991178;28;20046;-88
2023/05/09 00:11:42;;;;;;;55.35;30.70;;;16.20;99.90;;;;;;4969687;28;20401;-87
2023/05/09 00:14:11;;;;;;;51.40;30.88;;;16.20;99.90;;;;;;4990313;28;20049;-87
2023/05/09 00:16:37;;;;;;;38.60;24.90;;;16.20;99.90;;;;;;4995822;28;20047;-87
2023/05/09 00:19:03;;;;;;;51.53;29.83;;;16.10;99.90;;;;;;4982037;28;20042;-87
2023/05/09 00:21:29;;;;;;;63.95;34.00;;;16.10;99.90;;;;;;4981712;28;20050;-88
2023/05/09 00:23:55;;;;;;;47.30;28.20;;;16.10;99.90;;;;;;4987940;28;20397;-87
2023/05/09 00:26:21;;;;;;;51.95;30.83;;;16.10;99.90;;;;;;4975579;28;20050;-87
2023/05/09 00:28:47;;;;;;;49.85;30.45;;;16.00;99.90;;;;;;4983553;28;20070;-87
2023/05/09 00:31:13;;;;;;;46.65;27.35;;;16.00;99.90;;;;;;4990932;28;20078;-88
2023/05/09 00:33:39;;;;;;;52.70;32.00;;;16.00;99.90;;;;;;4985792;28;20109;-87
2023/05/09 00:36:05;;;;;;;44.03;27.35;;;16.00;99.90;;;;;;4998243;28;20034;-88
2023/05/09 00:38:30;;;;;;;56.90;31.80;;;16.00;99.90;;;;;;4994334;28;20046;-87
2023/05/09 00:40:56;;;;;;;46.45;27.88;;;16.00;99.90;;;;;;4969582;28;20053;-88
2023/05/09 00:43:22;;;;;;;54.00;32.67;;;16.00;99.90;;;;;;4987710;28;20049;-87
2023/05/09 00:45:48;;;;;;;49.58;29.45;;;16.00;99.90;;;;;;4968305;28;20089;-85
2023/05/09 00:48:15;;;;;;;51.47;30.20;;;16.00;99.90;;;;;;4983095;28;20584;-87
2023/05/09 00:50:41;;;;;;;46.83;27.88;;;16.00;99.90;;;;;;4990253;28;20122;-87
2023/05/09 00:53:08;;;;;;;48.55;28.80;;;15.90;99.90;;;;;;4987825;28;20034;-87
2023/05/09 00:55:34;;;;;;;47.85;28.52;;;15.90;99.90;;;;;;4971142;28;20046;-87
2023/05/09 00:58:01;;;;;;;46.45;29.10;;;15.90;99.90;;;;;;4998535;28;20041;-87
2023/05/09 01:00:27;;;;;;;53.00;32.60;;;15.90;99.90;;;;;;4994072;28;20081;-88
2023/05/09 01:02:54;;;;;;;48.70;29.40;;;15.90;99.90;;;;;;4999310;28;20042;-88
2023/05/09 01:05:21;;;;;;;51.30;30.98;;;15.90;99.90;;;;;;4984598;28;20566;-87
2023/05/09 01:08:24;;;;;;;41.05;26.27;;;15.80;99.90;;;;;;4987643;28;20505;-86
2023/05/09 01:10:58;;;;;;;40.05;25.60;;;15.80;99.90;;;;;;4991087;28;20046;-86
2023/05/09 01:13:36;;;;;;;45.30;27.50;;;15.80;99.90;;;;;;4991524;28;20039;-87
2023/05/09 01:16:11;;;;;;;36.90;24.55;;;15.80;99.90;;;;;;4976829;28;20034;-87
2023/05/09 01:18:50;;;;;;;44.80;27.55;;;15.80;99.90;;;;;;4988949;28;20437;-88
2023/05/09 01:21:35;;;;;;;52.47;31.58;;;15.80;99.90;;;;;;4983176;28;20045;-87
2023/05/09 01:24:21;;;;;;;48.42;29.50;;;15.70;99.90;;;;;;4988756;28;20048;-87
2023/05/09 01:27:19;;;;;;;54.95;31.52;;;15.70;99.90;;;;;;4988975;28;20042;-87
2023/05/09 01:29:47;;;;;;;59.03;33.85;;;15.70;99.90;;;;;;4972657;28;20045;-87
2023/05/09 01:32:19;;;;;;;52.08;31.55;;;15.70;99.90;;;;;;4979316;28;20049;-86
2023/05/09 01:34:48;;;;;;;45.05;27.48;;;15.70;99.90;;;;;;4985271;28;20039;-86
2023/05/09 01:37:15;;;;;;;40.72;26.55;;;15.70;99.90;;;;;;4970488;28;20054;-87
2023/05/09 01:39:45;;;;;;;57.20;32.65;;;15.70;99.90;;;;;;4973331;28;20038;-87
2023/05/09 01:42:11;;;;;;;56.10;32.72;;;15.70;99.90;;;;;;4983936;28;20073;-87
2023/05/09 01:44:42;;;;;;;61.28;34.40;;;15.70;99.90;;;;;;4988865;28;20038;-87
2023/05/09 01:47:09;;;;;;;53.22;32.53;;;15.70;99.90;;;;;;4991156;28;20043;-86
2023/05/09 01:49:37;;;;;;;54.97;30.60;;;15.60;99.90;;;;;;4991850;28;20042;-88
2023/05/09 01:52:14;;;;;;;45.78;29.00;;;15.60;99.90;;;;;;4978735;28;20078;-87
2023/05/09 01:54:41;;;;;;;46.83;27.88;;;15.60;99.90;;;;;;4977116;28;20421;-86
2023/05/09 01:57:08;;;;;;;58.20;31.63;;;15.60;99.90;;;;;;4989636;28;20035;-88
2023/05/09 01:59:35;;;;;;;51.35;30.88;;;15.60;99.90;;;;;;4992241;28;20058;-86
2023/05/09 02:02:03;;;;;;;40.80;25.95;;;15.60;99.90;;;;;;4985309;28;20043;-87
2023/05/09 02:04:30;;;;;;;45.30;28.05;;;15.60;99.90;;;;;;4969998;28;20039;-87
2023/05/09 02:06:56;;;;;;;47.45;28.17;;;15.60;99.90;;;;;;4983157;28;20043;-87
2023/05/09 02:09:22;;;;;;;42.88;26.02;;;15.90;99.90;;;;;;4971354;28;20481;-88
2023/05/09 02:11:48;;;;;;;44.47;28.15;;;15.60;99.90;;;;;;4976236;28;20121;-88
2023/05/09 02:14:13;;;;;;;47.50;28.92;;;15.60;99.90;;;;;;4967245;28;20050;-87
2023/05/09 02:16:40;;;;;;;44.65;27.60;;;15.60;99.90;;;;;;4972551;28;20034;-87
2023/05/09 02:19:06;;;;;;;59.25;34.10;;;15.60;99.90;;;;;;4991053;28;20503;-86
2023/05/09 02:21:32;;;;;;;56.65;34.08;;;15.60;99.90;;;;;;4990820;28;20054;-87
2023/05/09 02:23:58;;;;;;;70.72;39.47;;;15.60;99.90;;;;;;4972383;28;20053;-87
2023/05/09 02:26:26;;;;;;;60.85;36.97;;;15.60;99.90;;;;;;4987978;28;20061;-87
2023/05/09 02:28:53;;;;;;;64.13;36.88;;;15.50;99.90;;;;;;4987468;28;20117;-87
2023/05/09 02:31:21;;;;;;;58.15;33.25;;;15.50;99.90;;;;;;4982857;28;20049;-86
2023/05/09 02:33:48;;;;;;;63.05;38.10;;;15.50;99.90;;;;;;4975900;28;20113;-86
2023/05/09 02:36:15;;;;;;;48.15;29.70;;;15.50;99.90;;;;;;4969756;28;20058;-87
2023/05/09 02:38:43;;;;;;;66.85;36.38;;;15.40;99.90;;;;;;4989447;28;20102;-87
2023/05/09 02:41:15;;;;;;;67.60;38.03;;;15.40;99.90;;;;;;4990151;28;20034;-87
2023/05/09 02:43:41;;;;;;;54.78;33.47;;;15.40;99.90;;;;;;4970812;28;20050;-87
2023/05/09 02:46:07;;;;;;;55.67;32.08;;;15.40;99.90;;;;;;4976885;28;20046;-87
2023/05/09 02:48:33;;;;;;;70.65;39.72;;;15.30;99.90;;;;;;4981036;28;20137;-87
2023/05/09 02:50:59;;;;;;;67.90;38.90;;;15.30;99.90;;;;;;4986797;28;20038;-87
2023/05/09 02:53:25;;;;;;;64.88;39.00;;;15.40;99.90;;;;;;4987741;28;20038;-87
2023/05/09 02:55:50;;;;;;;75.35;42.25;;;15.40;99.90;;;;;;4986965;28;20041;-87
2023/05/09 02:58:16;;;;;;;74.72;39.33;;;15.40;99.90;;;;;;4977197;28;20050;-87
2023/05/09 03:00:42;;;;;;;59.10;35.28;;;15.30;99.90;;;;;;4988490;28;20035;-87
2023/05/09 03:03:08;;;;;;;82.38;43.35;;;15.30;99.90;;;;;;4990196;28;20034;-87
2023/05/09 03:05:33;;;;;;;79.90;45.17;;;15.30;99.90;;;;;;4971367;28;20046;-86
2023/05/09 03:07:59;;;;;;;79.82;43.30;;;15.30;99.90;;;;;;4991519;28;20030;-87
2023/05/09 03:10:24;;;;;;;79.20;43.78;;;15.20;99.90;;;;;;4986261;28;20042;-87
2023/05/09 03:12:50;;;;;;;86.88;44.38;;;15.20;99.90;;;;;;4989666;28;20046;-87
2023/05/09 03:15:16;;;;;;;74.65;41.10;;;15.20;99.90;;;;;;4977757;28;20078;-87
2023/05/09 03:17:41;;;;;;;89.13;44.03;;;15.20;99.90;;;;;;4990673;28;20027;-88
2023/05/09 03:20:09;;;;;;;56.50;31.88;;;15.20;99.90;;;;;;4982621;28;20030;-87
2023/05/09 03:22:35;;;;;;;66.80;38.42;;;15.20;99.90;;;;;;4977543;28;20061;-87
2023/05/09 03:25:01;;;;;;;72.57;42.28;;;15.20;99.90;;;;;;4962583;28;20125;-87
2023/05/09 03:27:26;;;;;;;78.80;43.08;;;15.20;99.90;;;;;;4970888;28;20037;-87
2023/05/09 03:29:52;;;;;;;69.65;39.13;;;15.20;99.90;;;;;;4984271;28;20038;-87
2023/05/09 03:32:17;;;;;;;72.82;40.47;;;15.20;99.90;;;;;;4978468;28;20095;-87
2023/05/09 03:34:43;;;;;;;78.13;41.80;;;15.20;99.90;;;;;;4986657;28;20046;-87
2023/05/09 03:37:09;;;;;;;54.00;33.20;;;15.20;99.90;;;;;;4995388;28;20181;-88
2023/05/09 03:39:34;;;;;;;83.50;45.45;;;15.30;99.90;;;;;;4970396;28;20505;-87
2023/05/09 03:42:00;;;;;;;84.60;45.42;;;15.30;99.90;;;;;;4995134;28;20045;-87
2023/05/09 03:44:25;;;;;;;84.22;43.83;;;15.30;99.90;;;;;;4987210;28;20126;-88
2023/05/09 03:46:51;;;;;;;63.42;37.38;;;15.30;99.90;;;;;;4984927;28;20624;-87
2023/05/09 03:49:17;;;;;;;68.95;39.25;;;15.30;99.90;;;;;;4983016;28;20093;-87
2023/05/09 03:51:42;;;;;;;63.03;36.78;;;15.30;99.90;;;;;;4991488;28;20034;-87
2023/05/09 03:54:08;;;;;;;53.55;31.70;;;15.30;99.90;;;;;;4986638;28;20529;-88
2023/05/09 03:56:33;;;;;;;69.28;40.10;;;15.30;99.90;;;;;;4989900;28;20043;-87
2023/05/09 03:59:00;;;;;;;57.00;34.72;;;15.30;99.90;;;;;;4987725;28;20047;-87
2023/05/09 04:01:26;;;;;;;63.85;35.33;;;15.30;99.90;;;;;;4992612;28;20493;-87
2023/05/09 04:03:52;;;;;;;47.17;29.17;;;15.30;99.90;;;;;;4989518;28;20114;-88
2023/05/09 04:06:17;;;;;;;49.30;32.28;;;15.30;99.90;;;;;;4992364;28;20048;-87
2023/05/09 04:08:43;;;;;;;50.33;31.38;;;15.30;99.90;;;;;;4984242;28;20088;-87
2023/05/09 04:11:09;;;;;;;58.67;37.55;;;15.40;99.90;;;;;;4985546;28;20528;-88
2023/05/09 04:13:35;;;;;;;59.33;38.88;;;15.40;99.90;;;;;;4993985;28;20049;-87
2023/05/09 04:16:01;;;;;;;59.28;38.67;;;15.40;99.90;;;;;;4990809;28;20045;-87
2023/05/09 04:18:26;;;;;;;50.88;32.90;;;15.40;99.90;;;;;;4965580;28;20070;-87
2023/05/09 04:20:52;;;;;;;49.72;33.17;;;15.40;99.90;;;;;;4992761;28;20065;-87
2023/05/09 04:23:18;;;;;;;44.50;31.30;;;15.30;99.90;;;;;;4980315;28;20081;-87
2023/05/09 04:25:43;;;;;;;42.28;28.17;;;15.30;99.90;;;;;;4974955;28;20078;-87
2023/05/09 04:28:09;;;;;;;46.95;32.88;;;15.30;99.90;;;;;;4995446;28;20038;-87
2023/05/09 04:30:35;;;;;;;41.90;28.67;;;15.20;99.90;;;;;;5004114;28;20599;-87
2023/05/09 04:33:01;;;;;;;38.70;26.52;;;15.20;99.90;;;;;;4993437;28;20031;-88
2023/05/09 04:35:27;;;;;;;40.22;26.98;;;15.20;99.90;;;;;;4960873;28;20181;-87
2023/05/09 04:37:52;;;;;;;40.70;29.08;;;15.20;99.90;;;;;;4988233;28;20138;-87
2023/05/09 04:40:18;;;;;;;40.22;29.48;;;15.20;99.90;;;;;;4985053;28;20043;-86
2023/05/09 04:42:44;;;;;;;37.67;25.90;;;15.20;99.90;;;;;;4983558;28;20477;-86
2023/05/09 04:45:10;;;;;;;32.40;23.90;;;15.20;99.90;;;;;;4985168;28;20402;-92
2023/05/09 04:47:39;;;;;;;38.25;26.70;;;15.20;99.90;;;;;;4976572;28;20183;-86
2023/05/09 04:50:06;;;;;;;39.92;28.42;;;15.20;99.90;;;;;;4995830;28;20499;-89
2023/05/09 04:52:32;;;;;;;41.80;28.85;;;15.20;99.90;;;;;;4985137;28;20065;-87
2023/05/09 04:54:58;;;;;;;37.00;26.17;;;15.20;99.90;;;;;;4991921;28;20469;-87
2023/05/09 04:57:24;;;;;;;41.75;28.52;;;15.30;99.90;;;;;;4982219;28;20042;-87
2023/05/09 04:59:51;;;;;;;38.92;29.10;;;15.30;99.90;;;;;;4985212;28;20105;-88
2023/05/09 05:02:17;;;;;;;41.85;29.70;;;15.30;99.90;;;;;;4977357;28;20164;-87
2023/05/09 05:04:43;;;;;;;35.83;26.30;;;15.30;99.90;;;;;;4965763;28;20487;-87
2023/05/09 05:07:09;;;;;;;48.08;32.22;;;15.40;99.90;;;;;;4989827;28;20508;-87
2023/05/09 05:09:34;;;;;;;45.80;32.65;;;15.40;99.90;;;;;;4976063;28;20046;-89
2023/05/09 05:12:00;;;;;;;42.97;29.40;;;15.40;99.90;;;;;;4984105;28;20041;-88
2023/05/09 05:14:26;;;;;;;50.22;32.17;;;15.40;99.90;;;;;;4978410;28;20056;-88
2023/05/09 05:16:52;;;;;;;43.33;29.98;;;15.30;99.90;;;;;;4983190;28;20481;-89
2023/05/09 05:19:18;;;;;;;45.08;32.45;;;15.40;99.90;;;;;;4990176;28;20121;-88
2023/05/09 05:21:43;;;;;;;45.55;32.20;;;15.40;99.90;;;;;;4980989;28;20428;-89
2023/05/09 05:24:09;;;;;;;43.83;31.95;;;15.40;99.90;;;;;;4986804;28;20039;-89
2023/05/09 05:26:35;;;;;;;45.22;32.30;;;15.40;99.90;;;;;;4987563;28;20039;-87
2023/05/09 05:29:01;;;;;;;41.88;31.45;;;15.40;99.90;;;;;;4990287;28;20049;-88
2023/05/09 05:31:26;;;;;;;43.22;30.58;;;15.40;99.90;;;;;;4984558;28;20042;-89
2023/05/09 05:33:55;;;;;;;39.72;28.67;;;15.30;99.90;;;;;;4995143;28;20344;-90
2023/05/09 05:36:24;;;;;;;36.53;25.50;;;15.40;99.90;;;;;;4974625;28;20053;-88
2023/05/09 05:38:53;;;;;;;28.30;21.80;;;15.40;99.90;;;;;;4978982;28;20038;-86
2023/05/09 05:41:18;;;;;;;30.48;23.50;;;15.40;99.90;;;;;;4976109;28;20117;-90
2023/05/09 05:43:44;;;;;;;28.30;22.00;;;15.40;99.90;;;;;;4988254;28;20045;-88
2023/05/09 05:46:10;;;;;;;29.92;22.25;;;15.40;99.90;;;;;;4990377;28;20050;-89
2023/05/09 05:48:36;;;;;;;27.38;22.30;;;15.40;99.90;;;;;;4981638;28;20397;-88
2023/05/09 05:51:02;;;;;;;28.05;22.75;;;15.40;99.90;;;;;;4975312;28;20061;-88
2023/05/09 05:53:39;;;;;;;29.73;23.77;;;15.40;99.90;;;;;;4980149;28;20114;-94
2023/05/09 05:56:05;;;;;;;29.42;21.63;;;15.40;99.90;;;;;;4992206;28;20042;-88
2023/05/09 05:58:31;;;;;;;28.23;21.55;;;15.40;99.90;;;;;;4980656;28;20054;-87
2023/05/09 06:00:57;;;;;;;27.17;21.90;;;15.40;99.90;;;;;;4992414;28;20121;-84
2023/05/09 06:03:22;;;;;;;28.25;22.17;;;15.30;99.90;;;;;;4994241;28;20382;-86
2023/05/09 06:05:48;;;;;;;27.67;21.48;;;15.40;99.90;;;;;;4991559;28;20373;-85
2023/05/09 06:08:14;;;;;;;25.75;20.42;;;15.40;99.90;;;;;;4984730;28;20393;-83
2023/05/09 06:10:40;;;;;;;28.13;22.73;;;15.40;99.90;;;;;;4983247;28;20105;-85
2023/05/09 06:13:06;;;;;;;29.98;22.70;;;15.40;99.90;;;;;;4976897;28;20049;-83
2023/05/09 06:15:31;;;;;;;29.60;22.33;;;15.40;99.90;;;;;;4982225;28;20035;-85
2023/05/09 06:18:01;;;;;;;25.90;20.98;;;15.50;99.90;;;;;;4971018;28;20053;-86
2023/05/09 06:20:29;;;;;;;28.35;21.17;;;15.50;99.90;;;;;;4983371;28;20551;-85
2023/05/09 06:22:58;;;;;;;27.48;21.60;;;15.50;99.90;;;;;;4959191;28;20055;-85
2023/05/09 06:25:24;;;;;;;30.92;24.08;;;15.50;99.90;;;;;;4984817;28;20133;-86
2023/05/09 06:27:50;;;;;;;30.50;22.52;;;15.50;99.90;;;;;;4987221;28;20149;-86
2023/05/09 06:30:17;;;;;;;34.15;23.95;;;15.60;99.90;;;;;;4989976;28;20054;-86
2023/05/09 06:32:44;;;;;;;32.03;23.88;;;15.50;99.90;;;;;;4978308;28;20077;-86
2023/05/09 06:35:10;;;;;;;31.88;23.45;;;15.60;99.90;;;;;;4984604;28;21006;-85
2023/05/09 06:37:35;;;;;;;37.28;24.85;;;15.70;99.90;;;;;;4985433;28;20027;-86
2023/05/09 06:40:02;;;;;;;31.48;24.58;;;15.70;99.90;;;;;;4977314;28;20042;-86
2023/05/09 06:42:32;;;;;;;41.38;26.52;;;15.70;99.90;;;;;;4985126;28;20078;-86
2023/05/09 06:44:58;;;;;;;42.42;27.05;;;15.70;99.90;;;;;;4978004;28;20034;-86
2023/05/09 06:47:23;;;;;;;43.85;28.38;;;15.80;99.90;;;;;;4987081;28;20054;-86
2023/05/09 06:49:49;;;;;;;43.78;29.48;;;15.80;99.90;;;;;;4984836;28;20027;-86
2023/05/09 06:52:15;;;;;;;46.25;29.35;;;15.70;99.90;;;;;;4985784;28;20370;-86
2023/05/09 06:54:40;;;;;;;42.60;29.63;;;15.70;99.90;;;;;;4990204;28;20034;-86
2023/05/09 06:57:06;;;;;;;45.30;29.48;;;15.80;99.90;;;;;;4972494;28;20217;-86
2023/05/09 06:59:32;;;;;;;40.90;27.98;;;15.70;99.90;;;;;;4967729;28;20133;-86
2023/05/09 07:01:58;;;;;;;45.58;28.90;;;15.80;99.90;;;;;;4982454;28;20378;-86
2023/05/09 07:04:24;;;;;;;47.28;30.73;;;15.70;99.90;;;;;;4971960;28;20129;-87
2023/05/09 07:06:49;;;;;;;43.55;26.27;;;15.70;99.90;;;;;;4969447;28;20118;-87
2023/05/09 07:09:16;;;;;;;50.42;32.72;;;15.80;99.90;;;;;;4983622;28;20081;-86
2023/05/09 07:11:42;;;;;;;49.20;31.73;;;15.80;99.90;;;;;;4979215;28;20050;-86
2023/05/09 07:14:07;;;;;;;51.80;35.25;;;15.80;99.90;;;;;;4982228;28;20042;-86
2023/05/09 07:16:33;;;;;;;54.70;34.47;;;15.70;99.90;;;;;;4989184;28;20517;-87
2023/05/09 07:18:59;;;;;;;58.85;37.13;;;15.70;99.90;;;;;;4983602;28;20402;-86
2023/05/09 07:21:24;;;;;;;56.25;34.67;;;15.70;99.90;;;;;;4989565;28;20046;-86
2023/05/09 07:23:50;;;;;;;56.92;34.53;;;15.70;99.90;;;;;;4982950;28;20079;-86
2023/05/09 07:26:16;;;;;;;64.72;36.92;;;15.70;99.90;;;;;;4965041;28;20054;-86
2023/05/09 07:28:41;;;;;;;61.72;37.47;;;15.80;99.90;;;;;;4964591;28;20429;-87
2023/05/09 07:31:08;;;;;;;64.40;37.45;;;16.00;99.90;;;;;;4971635;28;20141;-86
2023/05/09 07:33:34;;;;;;;62.63;36.22;;;15.80;99.90;;;;;;4979759;28;20183;-86
2023/05/09 07:36:00;;;;;;;57.50;35.72;;;15.80;99.90;;;;;;4965914;28;20051;-86
2023/05/09 07:38:26;;;;;;;68.55;40.58;;;15.70;99.90;;;;;;4972341;28;20370;-87
2023/05/09 07:40:54;;;;;;;57.90;35.03;;;15.70;99.90;;;;;;4970389;28;20161;-86
2023/05/09 07:43:20;;;;;;;64.30;36.70;;;15.70;99.90;;;;;;4965723;28;20057;-86
2023/05/09 07:45:48;;;;;;;60.78;36.80;;;15.70;99.90;;;;;;4982024;28;20046;-86
2023/05/09 07:48:14;;;;;;;62.95;38.47;;;15.80;99.90;;;;;;4971968;28;20058;-85
2023/05/09 07:50:39;;;;;;;62.35;36.60;;;15.80;99.90;;;;;;4988383;28;20034;-86
2023/05/09 07:53:05;;;;;;;63.70;39.72;;;15.80;99.90;;;;;;4986721;28;20123;-86
2023/05/09 07:55:31;;;;;;;69.93;39.78;;;15.80;99.90;;;;;;4985387;28;20038;-86
2023/05/09 07:57:56;;;;;;;63.20;39.00;;;15.90;99.90;;;;;;4975417;28;20042;-86
2023/05/09 08:00:22;;;;;;;62.53;38.78;;;16.00;99.90;;;;;;4965341;28;20054;-86
2023/05/09 08:02:50;;;;;;;69.38;39.30;;;16.00;99.90;;;;;;4968455;28;20148;-86
2023/05/09 08:05:18;;;;;;;64.05;36.03;;;16.00;99.90;;;;;;4970960;28;20093;-86
2023/05/09 08:07:47;;;;;;;64.57;36.72;;;16.10;99.90;;;;;;4971969;28;20046;-86
2023/05/09 08:10:13;;;;;;;64.03;37.83;;;16.10;99.90;;;;;;4961733;28;20043;-86
2023/05/09 08:12:38;;;;;;;54.67;34.85;;;16.10;99.90;;;;;;4970465;28;20385;-86
2023/05/09 08:15:05;;;;;;;61.25;38.30;;;16.20;99.90;;;;;;4970465;28;20059;-86
2023/05/09 08:17:30;;;;;;;61.05;38.00;;;16.20;99.90;;;;;;4969214;28;20053;-86
2023/05/09 08:19:56;;;;;;;62.97;37.35;;;16.30;99.90;;;;;;4987814;28;20035;-87
2023/05/09 08:22:22;;;;;;;63.45;37.65;;;16.30;99.90;;;;;;4970500;28;20046;-86
2023/05/09 08:24:55;;;;;;;63.22;37.20;;;16.40;99.90;;;;;;4985243;28;20034;-86
2023/05/09 08:27:20;;;;;;;62.80;35.88;;;16.40;99.90;;;;;;4985777;28;20401;-86
2023/05/09 08:29:48;;;;;;;61.38;35.47;;;16.50;99.90;;;;;;4971470;28;20090;-87
2023/05/09 08:32:14;;;;;;;65.03;35.67;;;16.50;99.90;;;;;;4966052;28;20125;-86
2023/05/09 08:34:40;;;;;;;60.88;33.90;;;16.60;99.90;;;;;;4987153;28;20121;-86
2023/05/09 08:37:06;;;;;;;57.05;35.20;;;16.70;99.90;;;;;;4964201;28;20039;-86
2023/05/09 08:39:33;;;;;;;51.42;31.95;;;16.70;99.90;;;;;;4982507;28;20109;-87
2023/05/09 08:42:00;;;;;;;52.15;30.77;;;16.80;99.90;;;;;;4970463;28;20089;-87
2023/05/09 08:44:28;;;;;;;54.97;34.83;;;16.80;99.90;;;;;;4989718;28;20400;-87
2023/05/09 08:46:57;;;;;;;57.83;34.25;;;16.80;99.90;;;;;;4965952;28;20046;-86
2023/05/09 08:49:23;;;;;;;59.45;34.55;;;16.90;99.90;;;;;;4986353;28;20034;-86
2023/05/09 08:51:49;;;;;;;53.28;30.85;;;17.10;99.90;;;;;;4986799;28;20125;-86
2023/05/09 08:54:15;;;;;;;51.38;30.85;;;17.20;99.90;;;;;;4974860;28;20046;-86
2023/05/09 08:56:41;;;;;;;54.13;32.70;;;17.20;99.90;;;;;;4989925;28;20072;-86
2023/05/09 08:59:11;;;;;;;57.75;32.60;;;17.20;99.90;;;;;;4985532;28;20085;-86
2023/05/09 09:01:37;;;;;;;60.08;32.47;;;17.30;99.90;;;;;;4983178;28;20121;-86
2023/05/09 09:04:07;;;;;;;51.50;34.08;;;17.30;99.90;;;;;;4965847;28;20046;-86
2023/05/09 09:06:37;;;;;;;51.28;29.48;;;17.40;99.90;;;;;;4982327;28;20046;-86
2023/05/09 09:09:05;;;;;;;57.80;31.27;;;17.50;99.90;;;;;;4985762;28;20031;-87
2023/05/09 09:11:32;;;;;;;50.03;29.40;;;17.50;99.90;;;;;;4981877;28;20046;-87
2023/05/09 09:14:01;;;;;;;46.80;30.95;;;17.50;99.90;;;;;;4992078;28;20117;-86
2023/05/09 09:16:31;;;;;;;50.47;30.35;;;17.50;99.90;;;;;;4989911;28;20504;-86
2023/05/09 09:19:01;;;;;;;46.47;29.60;;;17.50;99.90;;;;;;4973954;28;20069;-86
2023/05/09 09:21:28;;;;;;;50.45;30.95;;;17.50;99.90;;;;;;4969326;28;20080;-87
2023/05/09 09:23:55;;;;;;;47.78;29.80;;;17.60;99.90;;;;;;4990364;28;20129;-85
2023/05/09 09:26:21;;;;;;;44.50;28.45;;;17.60;99.90;;;;;;4975972;28;20034;-85
2023/05/09 09:28:46;;;;;;;44.53;28.10;;;17.60;99.90;;;;;;4967019;28;20616;-86
2023/05/09 09:31:20;;;;;;;45.58;30.02;;;17.70;99.90;;;;;;4987302;28;20649;-87
2023/05/09 09:33:46;;;;;;;48.97;28.52;;;17.70;99.90;;;;;;4969794;28;20548;-87
2023/05/09 09:36:11;;;;;;;44.80;28.48;;;17.80;99.90;;;;;;4983946;28;20120;-87
2023/05/09 09:38:43;;;;;;;40.85;25.13;;;17.80;99.90;;;;;;4991092;28;20046;-86
2023/05/09 09:41:12;;;;;;;38.72;26.30;;;17.80;99.90;;;;;;4963736;28;20042;-86
2023/05/09 09:43:37;;;;;;;40.63;27.15;;;17.80;99.90;;;;;;4964442;28;20042;-86
2023/05/09 09:46:04;;;;;;;43.63;26.27;;;17.80;99.90;;;;;;4968782;28;20061;-87
2023/05/09 09:48:32;;;;;;;39.88;26.38;;;17.80;99.90;;;;;;4974851;28;20362;-87
2023/05/09 09:51:10;;;;;;;38.85;25.23;;;17.90;99.90;;;;;;4983715;28;20039;-87
2023/05/09 09:53:45;;;;;;;40.25;25.90;;;18.00;99.90;;;;;;4968873;28;20061;-86
2023/05/09 09:56:11;;;;;;;38.38;24.75;;;18.00;99.90;;;;;;4985879;28;20042;-86
2023/05/09 09:58:37;;;;;;;36.85;24.80;;;18.10;99.90;;;;;;4969144;28;20050;-87
2023/05/09 10:01:05;;;;;;;38.33;25.85;;;18.00;99.90;;;;;;4964311;28;20054;-86
2023/05/09 10:03:36;;;;;;;38.42;24.25;;;18.00;99.90;;;;;;4951976;28;20171;-87
2023/05/09 10:06:08;;;;;;;36.72;25.23;;;18.00;99.90;;;;;;4991105;28;20070;-87
2023/05/09 10:08:33;;;;;;;39.15;25.70;;;17.90;99.90;;;;;;4960310;28;20113;-87
2023/05/09 10:10:59;;;;;;;35.90;23.85;;;17.80;99.90;;;;;;4968885;28;20034;-86
2023/05/09 10:13:26;;;;;;;37.47;25.98;;;17.80;99.90;;;;;;4967191;28;20051;-87
2023/05/09 10:15:53;;;;;;;39.95;25.83;;;17.70;99.90;;;;;;4974020;28;20066;-87
2023/05/09 10:18:25;;;;;;;36.03;22.80;;;17.70;99.90;;;;;;4984777;28;20034;-87
2023/05/09 10:21:02;;;;;;;37.28;24.65;;;17.80;99.90;;;;;;4979696;28;20381;-87
2023/05/09 10:23:30;;;;;;;35.55;23.27;;;17.90;99.90;;;;;;4974555;28;20371;-87
2023/05/09 10:26:21;;;;;;;33.88;23.58;;;18.10;99.90;;;;;;4963750;28;20064;-87
2023/05/09 10:28:48;;;;;;;31.30;22.10;;;18.20;99.90;;;;;;4967176;28;20053;-87
2023/05/09 10:31:15;;;;;;;35.03;23.23;;;18.40;99.90;;;;;;4990455;28;20054;-87
2023/05/09 10:33:54;;;;;;;33.10;22.80;;;18.60;99.90;;;;;;4966194;28;20890;-87
2023/05/09 10:36:23;;;;;;;32.97;22.52;;;18.60;99.90;;;;;;4990437;28;20042;-87
2023/05/09 10:38:57;;;;;;;29.23;21.75;;;18.70;99.90;;;;;;4965812;28;21026;-86
2023/05/09 10:41:27;;;;;;;31.67;21.55;;;18.70;99.90;;;;;;4969713;28;20121;-86
2023/05/09 10:43:56;;;;;;;31.77;22.35;;;18.70;99.90;;;;;;4967421;28;20038;-86
2023/05/09 10:46:25;;;;;;;33.42;22.00;;;18.80;99.90;;;;;;4967568;28;20062;-86
2023/05/09 10:48:52;;;;;;;35.80;22.45;;;18.80;99.90;;;;;;4969157;28;20124;-87
2023/05/09 10:51:18;;;;;;;32.60;22.13;;;18.80;99.90;;;;;;4966619;28;20121;-86
2023/05/09 10:53:47;;;;;;;32.05;20.88;;;18.90;99.90;;;;;;4974453;28;20414;-87
2023/05/09 10:56:29;;;;;;;28.83;20.83;;;18.90;99.90;;;;;;4983218;28;20077;-86
2023/05/09 10:58:55;;;;;;;30.17;20.17;;;18.80;99.90;;;;;;4938751;28;20051;-86
2023/05/09 11:01:35;;;;;;;26.98;19.40;;;18.80;99.90;;;;;;4961342;28;20061;-86
2023/05/09 11:04:08;;;;;;;26.02;19.13;;;18.90;99.90;;;;;;4942710;29;20039;-86
2023/05/09 11:06:51;;;;;;;29.45;18.95;;;18.90;99.90;;;;;;4935479;29;20069;-86
2023/05/09 11:09:37;;;;;;;26.45;18.33;;;19.00;99.90;;;;;;4940624;29;20106;-87
2023/05/09 11:12:09;;;;;;;27.73;18.17;;;19.10;99.90;;;;;;4945265;29;20043;-87
2023/05/09 11:14:34;;;;;;;28.20;20.08;;;19.20;99.90;;;;;;4950559;29;20066;-87
2023/05/09 11:17:08;;;;;;;27.33;19.60;;;19.20;99.90;;;;;;4961815;28;20039;-87
2023/05/09 11:19:52;;;;;;;28.20;18.15;;;19.20;99.90;;;;;;4939114;29;20111;-87
2023/05/09 11:22:40;;;;;;;26.45;17.73;;;19.10;99.90;;;;;;4945700;29;20241;-87
2023/05/09 11:25:14;;;;;;;24.45;17.98;;;19.10;99.90;;;;;;4946230;29;20039;-87
2023/05/09 11:27:43;;;;;;;25.42;17.88;;;19.10;99.90;;;;;;4949301;29;20090;-87
2023/05/09 11:30:13;;;;;;;27.65;19.33;;;19.20;99.90;;;;;;4950309;28;20070;-86
2023/05/09 11:32:50;;;;;;;28.27;19.38;;;19.20;99.90;;;;;;4945306;29;20073;-86
2023/05/09 11:35:21;;;;;;;26.23;19.15;;;19.20;99.90;;;;;;4945901;29;20058;-87
2023/05/09 11:38:00;;;;;;;32.42;20.15;;;19.30;99.90;;;;;;4965657;28;20040;-87
2023/05/09 11:40:27;;;;;;;26.77;18.88;;;19.40;99.90;;;;;;4964865;28;20082;-87
2023/05/09 11:42:54;;;;;;;28.35;19.45;;;19.40;99.90;;;;;;4942783;29;20495;-87
2023/05/09 11:45:21;;;;;;;30.73;20.73;;;19.30;99.90;;;;;;4944885;28;20673;-86
2023/05/09 11:47:50;;;;;;;29.48;20.02;;;19.30;99.90;;;;;;4944876;28;20050;-84
2023/05/09 11:50:18;;;;;;;29.25;19.42;;;19.30;99.90;;;;;;4943971;29;20449;-83
2023/05/09 11:52:46;;;;;;;26.92;18.98;;;19.30;99.90;;;;;;4937645;29;20070;-87
2023/05/09 11:55:14;;;;;;;28.27;19.90;;;19.40;99.90;;;;;;4965260;28;20047;-86
2023/05/09 11:57:41;;;;;;;26.38;19.05;;;19.40;99.90;;;;;;4947748;28;20499;-86
2023/05/09 12:00:10;;;;;;;28.75;18.90;;;19.40;99.90;;;;;;4939838;28;20058;-86
2023/05/09 12:02:37;;;;;;;27.95;18.40;;;19.40;99.90;;;;;;4945613;29;20130;-85
2023/05/09 12:05:09;;;;;;;25.23;17.15;;;19.30;99.90;;;;;;4959679;28;20088;-86
2023/05/09 12:07:36;;;;;;;24.90;18.10;;;19.20;99.90;;;;;;4939101;29;20035;-85
2023/05/09 12:10:07;;;;;;;28.33;18.63;;;19.20;99.90;;;;;;4942517;28;20099;-86
2023/05/09 12:12:45;;;;;;;27.80;17.88;;;19.20;99.90;;;;;;4949336;29;20043;-85
2023/05/09 12:15:12;;;;;;;25.77;18.98;;;19.30;99.90;;;;;;4956289;28;20105;-86
2023/05/09 12:17:39;;;;;;;25.63;18.58;;;19.40;99.90;;;;;;4956089;28;20071;-87
2023/05/09 12:20:05;;;;;;;25.92;18.35;;;19.40;99.90;;;;;;4942252;28;20042;-87
2023/05/09 12:22:32;;;;;;;25.92;18.55;;;19.50;99.90;;;;;;4946651;28;20058;-86
2023/05/09 12:25:01;;;;;;;24.15;17.13;;;19.60;99.90;;;;;;4948463;28;20046;-86
2023/05/09 12:27:28;;;;;;;27.48;20.25;;;19.60;99.90;;;;;;4933524;29;20043;-86
2023/05/09 12:29:54;;;;;;;31.25;21.60;;;19.80;99.90;;;;;;4965953;28;20122;-86
2023/05/09 12:32:21;;;;;;;32.55;22.85;;;19.80;99.90;;;;;;4950014;28;20050;-87